Time;durP1;ratioP1;P1;durP2;ratioP2;P2;SDS_P1;SDS_P2;PMS_P1;PMS_P2;Temp;Humidity;BMP_temperature;BMP_pressure;BME280_temperature;BME280_humidity;BME280_pressure;Samples;Min_cycle;Max_cycle;Signal;HPM_P1;HPM_P2
2024/01/20 00:02:24;;;;;;;2.33;1.45;;;;;;;10.43;91.86;97604.03;5031231;28;20202;-57
2024/01/20 00:04:49;;;;;;;5.25;1.92;;;;;;;10.70;91.61;97649.22;5064278;28;20189;-57
2024/01/20 00:07:15;;;;;;;1.50;1.40;;;;;;;10.67;92.47;97638.25;5074616;28;20169;-57
2024/01/20 00:09:40;;;;;;;1.90;1.77;;;;;;;9.96;93.40;97550.13;5074591;28;20642;-57
2024/01/20 00:12:06;;;;;;;2.72;1.50;;;;;;;10.48;93.46;97635.53;5074491;28;20181;-57
2024/01/20 00:14:31;;;;;;;2.90;1.40;;;;;;;10.03;95.07;97595.22;5074261;28;20264;-57
2024/01/20 00:16:57;;;;;;;2.70;1.65;;;;;;;10.38;94.80;97642.38;5074478;28;20173;-57
2024/01/20 00:19:22;;;;;;;3.15;1.60;;;;;;;10.09;95.03;97605.91;5074418;28;20218;-57
2024/01/20 00:21:47;;;;;;;3.00;2.42;;;;;;;9.84;95.25;97564.03;5074246;28;20197;-57
2024/01/20 00:24:13;;;;;;;4.03;2.03;;;;;;;10.39;95.14;97669.91;5074286;28;20192;-57
2024/01/20 00:26:38;;;;;;;2.85;2.17;;;;;;;9.88;94.68;97584.31;5074319;28;20173;-57
2024/01/20 00:29:03;;;;;;;2.63;2.03;;;;;;;10.31;95.09;97680.84;5073933;28;20204;-57
2024/01/20 00:31:30;;;;;;;5.30;3.00;;;;;;;9.82;100.00;97596.91;5051514;28;20206;-57
2024/01/20 00:33:55;;;;;;;7.38;3.38;;;;;;;10.23;100.00;97665.13;5049364;28;20236;-57
2024/01/20 00:36:21;;;;;;;6.00;3.70;;;;;;;10.13;100.00;97658.19;5050410;28;20198;-57
2024/01/20 00:38:46;;;;;;;5.25;3.70;;;;;;;10.07;100.00;97661.25;5050388;28;20240;-57
2024/01/20 00:41:12;;;;;;;8.80;5.38;;;;;;;10.15;100.00;97677.81;5050166;28;20284;-57
2024/01/20 00:43:37;;;;;;;8.13;6.22;;;;;;;9.98;100.00;97643.88;5049821;28;20220;-57
2024/01/20 00:46:02;;;;;;;9.85;6.05;;;;;;;10.32;100.00;97699.75;5030229;28;20281;-57
2024/01/20 00:48:28;;;;;;;12.00;7.53;;;;;;;9.87;100.00;97656.81;4990748;28;20657;-58
2024/01/20 00:50:53;;;;;;;12.40;8.05;;;;;;;10.08;100.00;97692.16;4990997;28;20196;-57
2024/01/20 00:53:19;;;;;;;11.52;8.45;;;;;;;10.10;100.00;97685.09;4990915;28;20278;-57
2024/01/20 00:55:44;;;;;;;16.50;8.63;;;;;;;9.47;100.00;97585.91;4990835;28;20278;-57
2024/01/20 00:58:10;;;;;;;12.73;7.57;;;;;;;9.51;100.00;97596.81;4990006;28;20184;-57
2024/01/20 01:00:37;;;;;;;12.70;6.95;;;;;;;9.64;100.00;97629.34;4990848;28;20188;-57
2024/01/20 01:03:03;;;;;;;7.00;5.70;;;;;;;9.98;100.00;97680.06;4990631;28;20258;-57
2024/01/20 01:05:28;;;;;;;7.13;5.25;;;;;;;9.95;100.00;97691.44;4990783;28;20191;-57
2024/01/20 01:07:54;;;;;;;8.55;5.20;;;;;;;9.72;100.00;97663.13;4992202;28;20191;-57
2024/01/20 01:10:19;;;;;;;5.25;4.45;;;;;;;9.51;100.00;97636.41;5010311;28;20222;-57
2024/01/20 01:12:45;;;;;;;6.35;4.30;;;;;;;10.06;100.00;97716.47;5010283;28;20187;-57
2024/01/20 01:15:10;;;;;;;10.98;5.55;;;;;;;10.14;100.00;97727.88;5010150;28;20580;-57
2024/01/20 01:17:36;;;;;;;11.55;6.22;;;;;;;10.14;100.00;97727.88;5010120;28;20191;-57
2024/01/20 01:20:03;;;;;;;10.85;6.93;;;;;;;9.85;100.00;97676.75;5055654;28;20621;-57
2024/01/20 01:22:28;;;;;;;8.93;6.93;;;;;;;10.00;100.00;97697.09;5072147;28;20212;-57
2024/01/20 01:24:54;;;;;;;11.27;8.15;;;;;;;9.87;100.00;97682.63;5072172;28;20200;-57
2024/01/20 01:27:19;;;;;;;10.45;7.63;;;;;;;9.83;100.00;97682.06;5072135;28;20165;-57
2024/01/20 01:29:44;;;;;;;15.45;8.15;;;;;;;9.96;100.00;97697.41;5072099;28;20260;-57
2024/01/20 01:32:10;;;;;;;9.07;7.50;;;;;;;10.10;100.00;97731.63;5032585;28;1120099;-57
2024/01/20 01:34:36;;;;;;;15.48;10.27;;;;;;;9.89;100.00;97691.09;5072720;28;20571;-57
2024/01/20 01:37:01;;;;;;;12.57;9.95;;;;;;;9.98;100.00;97703.31;5072603;28;20188;-57
2024/01/20 01:39:27;;;;;;;12.82;9.48;;;;;;;9.91;100.00;97699.53;5072624;28;20173;-57
2024/01/20 01:41:52;;;;;;;12.05;9.38;;;;;;;9.94;100.00;97697.56;5072790;28;20574;-58
2024/01/20 01:44:17;;;;;;;14.30;10.05;;;;;;;9.59;100.00;97644.38;5072819;28;20645;-57
2024/01/20 01:46:43;;;;;;;15.15;9.82;;;;;;;9.74;100.00;97684.50;5073031;28;20184;-57
2024/01/20 01:49:08;;;;;;;15.88;10.27;;;;;;;9.39;100.00;97665.69;5072722;28;20561;-57
2024/01/20 01:51:34;;;;;;;14.80;9.85;;;;;;;9.62;100.00;97724.19;5030189;28;20277;-57
2024/01/20 01:54:01;;;;;;;15.15;9.85;;;;;;;9.35;100.00;97674.63;5029375;28;20198;-57
2024/01/20 01:56:28;;;;;;;13.25;9.68;;;;;;;9.86;100.00;97768.84;5030261;28;20186;-57
2024/01/20 01:58:55;;;;;;;13.93;10.20;;;;;;;9.73;100.00;97763.78;5010197;28;20277;-58
2024/01/20 02:01:21;;;;;;;12.82;9.07;;;;;;;9.74;100.00;97769.75;4971078;28;20219;-57
2024/01/20 02:03:46;;;;;;;12.98;8.52;;;;;;;9.75;100.00;97792.06;4971206;28;20199;-57
2024/01/20 02:06:11;;;;;;;10.55;8.43;;;;;;;9.42;100.00;97757.59;4971163;28;20228;-57
2024/01/20 02:08:40;;;;;;;15.73;9.38;;;;;;;9.33;100.00;97748.75;4971231;28;20241;-57
2024/01/20 02:11:06;;;;;;;12.75;8.82;;;;;;;9.24;100.00;97752.03;4971224;28;20195;-57
2024/01/20 02:13:32;;;;;;;14.18;9.13;;;;;;;8.97;100.00;97722.28;4971178;28;20687;-57
2024/01/20 02:15:58;;;;;;;17.00;10.00;;;;;;;8.79;100.00;97698.63;4971047;28;20196;-57
2024/01/20 02:18:24;;;;;;;12.88;8.60;;;;;;;8.92;100.00;97732.91;4971043;28;20234;-57
2024/01/20 02:20:50;;;;;;;13.88;9.20;;;;;;;8.98;100.00;97747.13;4970994;28;20208;-57
2024/01/20 02:23:15;;;;;;;13.45;9.35;;;;;;;9.06;100.00;97748.22;5001646;28;20214;-57
2024/01/20 02:25:41;;;;;;;16.30;10.40;;;;;;;9.38;100.00;97798.31;5009941;28;20194;-57
2024/01/20 02:28:06;;;;;;;21.83;10.25;;;;;;;8.89;100.00;97728.00;5009887;28;20198;-57
2024/01/20 02:30:32;;;;;;;17.70;10.70;;;;;;;9.45;100.00;97799.53;5025116;28;20512;-57
2024/01/20 02:32:57;;;;;;;23.58;11.10;;;;;;;9.03;100.00;97740.69;5061764;28;20691;-57
2024/01/20 02:35:23;;;;;;;20.00;12.05;;;;;;;9.23;100.00;97768.47;5071823;28;20687;-57
2024/01/20 02:37:48;;;;;;;20.75;12.27;;;;;;;8.98;100.00;97726.50;5049086;28;20194;-57
2024/01/20 02:40:14;;;;;;;19.60;12.10;;;;;;;9.12;100.00;97762.44;5049324;28;20185;-56
2024/01/20 02:42:39;;;;;;;21.52;12.32;;;;;;;9.04;100.00;97770.72;5049225;28;20266;-57
2024/01/20 02:45:05;;;;;;;21.08;11.60;;;;;;;9.07;100.00;97749.03;5049290;28;20174;-57
2024/01/20 02:47:30;;;;;;;12.77;7.05;;;;;;;9.20;100.00;97754.97;5049448;28;20507;-57
2024/01/20 02:49:56;;;;;;;8.23;6.18;;;;;;;9.01;100.00;97716.78;5049204;28;20227;-57
2024/01/20 02:52:21;;;;;;;8.38;6.57;;;;;;;9.61;100.00;97810.34;5049097;28;20193;-57
2024/01/20 02:54:47;;;;;;;8.48;6.60;;;;;;;9.12;100.00;97721.13;5049158;28;20308;-57
2024/01/20 02:57:12;;;;;;;7.60;6.68;;;;;;;9.60;100.00;97807.91;5049042;28;20190;-57
2024/01/20 02:59:37;;;;;;;11.15;7.57;;;;;;;9.35;100.00;97782.22;5049082;28;20169;-57
2024/01/20 03:02:03;;;;;;;10.18;7.63;;;;;;;9.69;100.00;97833.88;5048966;28;20212;-57
2024/01/20 03:04:29;;;;;;;11.13;7.80;;;;;;;9.28;100.00;97770.69;5049013;28;20188;-57
2024/01/20 03:06:54;;;;;;;15.73;7.97;;;;;;;9.50;100.00;97833.56;5048840;28;20595;-57
2024/01/20 03:09:19;;;;;;;8.35;6.47;;;;;;;9.44;100.00;97821.09;5065041;28;20196;-57
2024/01/20 03:11:45;;;;;;;7.93;5.72;;;;;;;9.46;100.00;97831.31;5071376;28;20588;-57
2024/01/20 03:14:10;;;;;;;8.40;5.78;;;;;;;9.23;100.00;97804.59;5071402;28;20173;-57
2024/01/20 03:16:36;;;;;;;7.35;5.25;;;;;;;8.93;100.00;97755.22;5071280;28;20189;-57
2024/01/20 03:19:02;;;;;;;8.73;5.70;;;;;;;8.73;100.00;97742.91;5028776;28;20611;-57
2024/01/20 03:21:27;;;;;;;9.45;6.47;;;;;;;9.14;100.00;97851.72;5028842;28;20339;-57
2024/01/20 03:23:55;;;;;;;12.35;6.63;;;;;;;8.92;100.00;97830.13;5028835;28;20277;-57
2024/01/20 03:26:21;;;;;;;9.55;6.75;;;;;;;8.74;100.00;97779.84;5028858;28;20248;-57
2024/01/20 03:28:46;;;;;;;10.98;7.13;;;;;;;8.85;100.00;97816.84;5028797;28;20190;-57
2024/01/20 03:31:12;;;;;;;9.30;6.35;;;;;;;8.95;100.00;97817.00;5028799;28;20185;-57
2024/01/20 03:33:37;;;;;;;9.07;6.65;;;;;;;9.23;100.00;97850.22;5028592;28;20241;-57
2024/01/20 03:36:03;;;;;;;10.25;5.80;;;;;;;8.81;100.00;97787.06;5028827;28;20174;-58
2024/01/20 03:38:29;;;;;;;12.10;7.03;;;;;;;9.29;100.00;97867.84;5028812;28;20197;-57
2024/01/20 03:40:54;;;;;;;10.20;6.25;;;;;;;9.04;100.00;97821.53;5008850;28;20699;-57
2024/01/20 03:43:19;;;;;;;8.85;6.00;;;;;;;9.13;100.00;97833.75;5008960;28;20640;-57
2024/01/20 03:45:46;;;;;;;8.77;6.18;;;;;;;9.04;100.00;97817.16;5008902;28;20271;-57
2024/01/20 03:48:11;;;;;;;9.60;6.28;;;;;;;9.40;100.00;97894.56;5008997;28;20274;-57
2024/01/20 03:50:37;;;;;;;11.38;6.82;;;;;;;9.13;100.00;97837.16;5038774;28;20186;-57
2024/01/20 03:53:02;;;;;;;16.25;7.72;;;;;;;9.21;100.00;97849.53;5048515;28;20716;-57
2024/01/20 03:55:28;;;;;;;19.05;7.50;;;;;;;9.49;100.00;97893.06;5048741;28;20213;-57
2024/01/20 03:57:53;;;;;;;16.67;8.20;;;;;;;9.12;100.00;97829.53;5048412;28;20186;-57
2024/01/20 04:00:19;;;;;;;13.73;7.18;;;;;;;9.28;100.00;97869.63;5048485;28;20652;-57
2024/01/20 04:02:44;;;;;;;10.93;6.90;;;;;;;9.36;100.00;97867.31;5048348;28;20271;-58
2024/01/20 04:05:10;;;;;;;11.00;6.97;;;;;;;9.73;100.00;97917.94;5048448;28;20174;-57
2024/01/20 04:07:36;;;;;;;8.25;5.88;;;;;;;9.61;100.00;97918.00;5048414;28;20262;-57
2024/01/20 04:10:02;;;;;;;9.38;6.03;;;;;;;9.27;100.00;97878.28;5048385;28;20182;-57
2024/01/20 04:12:28;;;;;;;11.30;7.38;;;;;;;9.05;100.00;97844.63;5064794;28;20200;-58
2024/01/20 04:14:55;;;;;;;9.88;6.35;;;;;;;9.58;100.00;97929.38;5070782;28;20169;-58
2024/01/20 04:17:21;;;;;;;11.32;7.50;;;;;;;9.30;100.00;97878.06;5071723;28;20177;-58
2024/01/20 04:19:46;;;;;;;12.57;7.78;;;;;;;9.32;100.00;97867.66;5074165;28;20580;-58
2024/01/20 04:22:11;;;;;;;11.10;8.00;;;;;;;9.01;100.00;97844.94;5074125;28;20671;-58
2024/01/20 04:24:37;;;;;;;15.55;7.20;;;;;;;9.00;100.00;97836.41;5074304;28;20173;-58
2024/01/20 04:27:02;;;;;;;11.23;7.38;;;;;;;9.22;100.00;97872.66;5074511;28;20201;-58
2024/01/20 04:29:28;;;;;;;9.38;6.47;;;;;;;9.58;100.00;97937.13;5074295;28;20177;-58
2024/01/20 04:31:53;;;;;;;8.18;6.70;;;;;;;9.31;100.00;97895.22;5074191;28;20184;-58
2024/01/20 04:34:19;;;;;;;12.15;6.93;;;;;;;9.61;100.00;97941.25;5073808;28;20196;-58
2024/01/20 04:36:44;;;;;;;11.13;6.38;;;;;;;9.03;100.00;97863.75;5074081;28;20226;-58
2024/01/20 04:39:10;;;;;;;10.52;7.30;;;;;;;9.07;100.00;97863.41;5074118;28;20234;-59
2024/01/20 04:41:35;;;;;;;13.15;6.68;;;;;;;9.32;100.00;97922.66;5074001;28;20200;-59
2024/01/20 04:44:00;;;;;;;7.78;6.72;;;;;;;9.64;100.00;97980.59;5073935;28;20183;-59
2024/01/20 04:46:26;;;;;;;13.57;7.60;;;;;;;9.68;100.00;97982.00;5073980;28;20181;-59
2024/01/20 04:48:51;;;;;;;8.90;7.60;;;;;;;9.43;100.00;97938.22;5073913;28;20715;-58
2024/01/20 04:51:17;;;;;;;13.98;8.88;;;;;;;9.38;100.00;97914.47;5073929;28;20171;-58
2024/01/20 04:53:42;;;;;;;14.60;9.43;;;;;;;9.95;100.00;98011.88;5073921;28;20597;-58
2024/01/20 04:56:08;;;;;;;14.23;8.70;;;;;;;9.86;100.00;98014.31;5073850;28;20203;-59
2024/01/20 04:58:33;;;;;;;17.75;9.98;;;;;;;9.85;100.00;98030.72;5073856;28;20173;-59
2024/01/20 05:00:59;;;;;;;12.80;8.77;;;;;;;9.84;100.00;98031.66;5073769;28;20184;-57
2024/01/20 05:03:25;;;;;;;13.55;8.75;;;;;;;9.25;100.00;97949.84;5073542;28;20200;-57
2024/01/20 05:05:50;;;;;;;9.52;7.55;;;;;;;9.74;100.00;98031.50;5050963;28;20711;-57
2024/01/20 05:08:15;;;;;;;8.25;5.85;;;;;;;9.72;100.00;98035.13;5051085;28;20196;-57
2024/01/20 05:10:41;;;;;;;8.77;6.63;;;;;;;9.64;100.00;98030.47;5051130;28;20268;-57
2024/01/20 05:13:06;;;;;;;7.05;5.97;;;;;;;9.27;100.00;97981.53;5051012;28;20213;-56
2024/01/20 05:15:32;;;;;;;7.15;6.18;;;;;;;9.41;100.00;98035.63;5050972;28;20185;-57
2024/01/20 05:17:58;;;;;;;11.30;9.18;;;;;;;9.30;100.00;98025.22;5050913;28;20257;-57
2024/01/20 05:20:23;;;;;;;10.07;9.07;;;;;;;9.44;100.00;98055.25;5050844;28;20672;-58
2024/01/20 05:22:49;;;;;;;12.30;8.25;;;;;;;9.17;100.00;98013.25;5062575;28;20208;-57
2024/01/20 05:25:15;;;;;;;8.70;5.70;;;;;;;9.28;100.00;98023.66;5070758;28;20247;-57
2024/01/20 05:27:40;;;;;;;7.15;5.20;;;;;;;9.06;100.00;97985.63;5070843;28;20272;-58
2024/01/20 05:30:07;;;;;;;5.88;4.93;;;;;;;9.56;91.22;98064.72;5049336;28;20303;-58
2024/01/20 05:32:32;;;;;;;4.85;4.45;;;;;;;9.14;92.17;98016.88;5010558;28;20277;-58
2024/01/20 05:34:58;;;;;;;7.70;4.00;;;;;;;9.43;92.78;98074.25;5010914;28;20191;-57
2024/01/20 05:37:23;;;;;;;5.20;3.40;;;;;;;8.89;91.28;97978.22;4991102;28;20195;-58
2024/01/20 05:39:49;;;;;;;3.20;3.00;;;;;;;8.86;88.66;97983.56;4991495;28;20202;-58
2024/01/20 05:42:15;;;;;;;4.85;3.67;;;;;;;8.85;88.26;98005.16;4991087;28;20303;-58
2024/01/20 05:44:40;;;;;;;3.28;3.00;;;;;;;8.91;88.75;98040.84;4991168;28;20788;-58
2024/01/20 05:47:05;;;;;;;5.63;4.15;;;;;;;8.58;88.96;97991.56;4991058;28;20725;-57
2024/01/20 05:49:31;;;;;;;4.40;3.80;;;;;;;8.64;89.49;98022.09;4991348;28;20184;-58
2024/01/20 05:51:56;;;;;;;5.63;3.80;;;;;;;8.73;87.71;98043.84;4991041;28;20191;-58
2024/01/20 05:54:22;;;;;;;3.30;3.10;;;;;;;8.75;88.90;98055.69;4991023;28;20274;-58
2024/01/20 05:56:47;;;;;;;4.75;3.10;;;;;;;8.61;89.31;98024.00;4991174;28;20190;-58
2024/01/20 05:59:12;;;;;;;4.20;3.65;;;;;;;8.77;90.54;98059.00;4971247;28;20726;-58
2024/01/20 06:01:38;;;;;;;4.78;4.20;;;;;;;9.04;91.29;98088.09;4985481;28;20250;-58
2024/01/20 06:04:04;;;;;;;5.93;3.70;;;;;;;8.93;91.49;98063.97;5005107;28;20622;-58
2024/01/20 06:06:29;;;;;;;4.57;3.08;;;;;;;8.81;91.40;98055.31;5010354;28;20175;-58
2024/01/20 06:08:55;;;;;;;4.20;3.58;;;;;;;8.55;92.15;98004.63;5053498;28;20188;-58
2024/01/20 06:11:22;;;;;;;9.50;5.30;;;;;;;9.02;92.58;98089.97;5069966;28;20181;-57
2024/01/20 06:13:47;;;;;;;9.82;4.80;;;;;;;8.79;93.33;98064.88;5069725;28;20193;-58
2024/01/20 06:16:13;;;;;;;8.68;5.75;;;;;;;8.70;93.85;98056.94;5069844;28;20184;-58
2024/01/20 06:18:38;;;;;;;9.52;5.50;;;;;;;8.87;94.46;98090.19;5069741;28;20575;-57
2024/01/20 06:21:04;;;;;;;9.82;5.35;;;;;;;9.06;95.12;98126.72;5069618;28;20497;-58
2024/01/20 06:23:29;;;;;;;7.40;5.90;;;;;;;8.85;95.54;98092.03;5069707;28;20231;-58
2024/01/20 06:25:55;;;;;;;8.02;5.47;;;;;;;8.52;96.45;98053.00;5069599;28;20752;-58
2024/01/20 06:28:21;;;;;;;13.73;7.38;;;;;;;9.00;97.33;98146.03;5069593;28;20177;-58
2024/01/20 06:30:49;;;;;;;11.30;6.70;;;;;;;8.66;98.25;98089.00;5086090;28;20275;-57
2024/01/20 06:33:15;;;;;;;10.00;7.00;;;;;;;8.94;99.12;98137.84;5091642;28;20756;-58
2024/01/20 06:35:40;;;;;;;10.82;6.10;;;;;;;8.90;98.67;98137.25;5092131;28;20235;-58
2024/01/20 06:38:06;;;;;;;8.85;6.13;;;;;;;8.83;97.64;98114.50;5091674;28;20184;-58
2024/01/20 06:40:31;;;;;;;8.80;6.75;;;;;;;8.86;99.29;98146.09;5091608;28;20267;-58
2024/01/20 06:42:57;;;;;;;25.00;13.48;;;;;;;8.77;97.68;98131.25;5091892;28;20674;-57
2024/01/20 06:45:22;;;;;;;4.65;3.65;;;;;;;8.53;91.87;98122.53;5092019;28;20211;-58
2024/01/20 06:47:48;;;;;;;5.32;3.20;;;;;;;8.55;90.20;98146.44;5091771;28;20173;-58
2024/01/20 06:50:13;;;;;;;10.00;5.80;;;;;;;8.80;89.23;98180.03;5091607;28;20176;-58
2024/01/20 06:52:39;;;;;;;6.65;4.28;;;;;;;8.82;84.20;98196.25;5091467;28;20325;-58
2024/01/20 06:55:05;;;;;;;7.15;4.20;;;;;;;8.30;85.44;98119.75;5091767;28;20256;-58
2024/01/20 06:57:30;;;;;;;3.33;2.78;;;;;;;8.26;85.82;98113.13;5091769;28;20169;-58
2024/01/20 06:59:56;;;;;;;45.33;21.02;;;;;;;8.31;87.43;98148.03;5091730;28;20309;-58
2024/01/20 07:02:21;;;;;;;12.45;7.03;;;;;;;8.75;88.77;98218.19;5091756;28;20578;-58
2024/01/20 07:04:47;;;;;;;6.90;4.40;;;;;;;8.56;91.29;98216.91;5091775;28;20179;-58
2024/01/20 07:07:12;;;;;;;4.05;3.63;;;;;;;8.01;93.87;98142.19;5091908;28;20703;-58
2024/01/20 07:09:41;;;;;;;5.60;3.60;;;;;;;8.24;97.30;98190.56;5091378;28;20172;-57
2024/01/20 07:12:08;;;;;;;4.70;3.42;;;;;;;8.43;99.76;98250.38;5091849;28;20648;-57
2024/01/20 07:14:33;;;;;;;5.20;4.35;;;;;;;8.17;100.00;98234.81;5091293;28;20643;-58
2024/01/20 07:16:59;;;;;;;2.85;2.40;;;;;;;7.72;98.15;98224.72;5083278;28;20191;-58
2024/01/20 07:19:24;;;;;;;2.72;2.50;;;;;;;7.59;98.53;98268.41;5087987;28;20188;-58
2024/01/20 07:21:50;;;;;;;2.25;2.10;;;;;;;6.94;99.70;98203.69;5091350;28;20630;-58
2024/01/20 07:24:15;;;;;;;4.15;2.55;;;;;;;7.26;100.00;98265.22;5091241;28;20685;-57
2024/01/20 07:26:41;;;;;;;2.85;2.65;;;;;;;6.95;100.00;98229.31;5091311;28;20172;-58
2024/01/20 07:29:06;;;;;;;4.35;3.33;;;;;;;7.06;100.00;98260.38;5091175;28;20302;-58
2024/01/20 07:31:32;;;;;;;2.95;2.75;;;;;;;7.10;100.00;98271.34;5091248;28;20249;-57
2024/01/20 07:33:58;;;;;;;3.22;2.72;;;;;;;6.82;100.00;98236.03;5091424;28;20317;-57
2024/01/20 07:36:23;;;;;;;2.05;1.90;;;;;;;6.69;100.00;98229.94;5091405;28;20168;-57
2024/01/20 07:38:48;;;;;;;3.78;3.00;;;;;;;6.69;100.00;98263.34;5091420;28;20203;-58
2024/01/20 07:41:14;;;;;;;3.78;1.75;;;;;;;6.83;100.00;98304.56;5091301;28;20172;-57
2024/01/20 07:43:39;;;;;;;2.78;2.03;;;;;;;6.16;100.00;98210.66;5091380;28;20632;-58
2024/01/20 07:46:07;;;;;;;2.47;2.28;;;;;;;6.23;100.00;98251.34;5091334;28;20168;-58
2024/01/20 07:48:32;;;;;;;1.70;1.60;;;;;;;6.36;100.00;98282.38;5091363;28;20169;-58
2024/01/20 07:50:58;;;;;;;1.80;1.70;;;;;;;6.54;100.00;98322.50;5090921;28;20625;-58
2024/01/20 07:53:23;;;;;;;5.35;3.50;;;;;;;6.32;100.00;98316.84;5093930;28;20177;-58
2024/01/20 07:55:48;;;;;;;12.77;6.38;;;;;;;5.97;100.00;98246.78;5094974;28;20722;-58
2024/01/20 07:58:14;;;;;;;5.82;4.60;;;;;;;6.02;100.00;98252.53;5094805;28;20745;-57
2024/01/20 08:00:39;;;;;;;3.50;2.80;;;;;;;5.63;100.00;98202.38;5095146;28;20218;-57
2024/01/20 08:03:04;;;;;;;4.65;3.55;;;;;;;6.09;100.00;98273.53;5095006;28;20291;-58
2024/01/20 08:05:31;;;;;;;5.35;3.60;;;;;;;6.38;100.00;98335.34;5095310;28;20176;-57
2024/01/20 08:07:57;;;;;;;3.85;2.70;;;;;;;6.20;100.00;98323.47;5094879;28;20270;-58
2024/01/20 08:10:22;;;;;;;5.07;3.83;;;;;;;5.82;100.00;98273.25;5094964;28;20271;-57
2024/01/20 08:12:47;;;;;;;6.85;4.53;;;;;;;6.17;100.00;98359.56;5094794;28;20177;-58
2024/01/20 08:15:13;;;;;;;7.32;4.57;;;;;;;5.75;100.00;98304.41;5095086;28;20179;-58
2024/01/20 08:17:38;;;;;;;6.63;3.97;;;;;;;5.95;100.00;98378.72;5095025;28;20552;-58
2024/01/20 08:20:05;;;;;;;4.43;4.00;;;;;;;5.94;100.00;98392.47;5094348;28;20207;-58
2024/01/20 08:22:30;;;;;;;5.00;3.90;;;;;;;5.87;100.00;98391.94;5094520;28;20208;-58
2024/01/20 08:24:56;;;;;;;4.18;3.72;;;;;;;5.87;100.00;98399.66;5094342;28;20685;-58
2024/01/20 08:27:21;;;;;;;3.53;3.05;;;;;;;5.59;100.00;98362.56;5094492;28;20173;-58
2024/01/20 08:29:47;;;;;;;4.22;3.83;;;;;;;5.42;100.00;98363.38;5094054;28;20172;-58
2024/01/20 08:32:12;;;;;;;3.97;3.55;;;;;;;5.08;100.00;98327.44;5094283;28;20238;-58
2024/01/20 08:34:38;;;;;;;4.65;3.78;;;;;;;4.97;100.00;98324.59;5094160;28;20173;-58
2024/01/20 08:37:03;;;;;;;2.20;2.00;;;;;;;5.05;100.00;98358.38;5093919;28;20634;-59
2024/01/20 08:39:29;;;;;;;2.10;2.00;;;;;;;5.30;100.00;98420.41;5094710;28;20180;-59
2024/01/20 08:41:55;;;;;;;1.98;1.70;;;;;;;5.40;100.00;98434.47;5094292;28;20709;-57
2024/01/20 08:44:20;;;;;;;1.70;1.70;;;;;;;5.03;100.00;98361.91;5094416;28;20180;-57
2024/01/20 08:46:47;;;;;;;1.90;1.80;;;;;;;5.53;100.00;98443.22;5094004;28;20168;-58
2024/01/20 08:49:13;;;;;;;1.50;1.40;;;;;;;5.37;100.00;98442.28;5094182;28;20271;-57
2024/01/20 08:51:38;;;;;;;1.38;1.27;;;;;;;4.84;100.00;98349.09;5094157;28;20184;-58
2024/01/20 08:54:04;;;;;;;2.30;1.85;;;;;;;5.42;100.00;98454.94;5093910;28;20193;-57
2024/01/20 08:56:29;;;;;;;1.50;1.20;;;;;;;4.82;100.00;98358.63;5093821;28;20245;-58
2024/01/20 08:58:55;;;;;;;2.50;2.30;;;;;;;5.29;100.00;98444.41;5094272;28;20173;-58
2024/01/20 09:01:20;;;;;;;3.17;2.15;;;;;;;5.05;100.00;98414.78;5093100;28;20256;-58
2024/01/20 09:03:45;;;;;;;1.52;1.42;;;;;;;4.84;100.00;98374.75;5089440;28;20259;-57
2024/01/20 09:06:12;;;;;;;1.58;1.15;;;;;;;5.36;100.00;98461.16;5082236;28;20288;-58
2024/01/20 09:08:37;;;;;;;4.20;3.13;;;;;;;4.82;100.00;98381.69;5073563;28;20173;-58
2024/01/20 09:11:03;;;;;;;3.47;2.58;;;;;;;4.99;100.00;98419.34;5073516;28;20192;-58
2024/01/20 09:13:28;;;;;;;5.07;3.90;;;;;;;5.38;100.00;98490.16;5050878;28;20280;-58
2024/01/20 09:15:54;;;;;;;3.92;3.63;;;;;;;5.06;100.00;98443.78;5051075;28;20597;-58
2024/01/20 09:18:19;;;;;;;3.28;2.50;;;;;;;4.96;100.00;98433.13;5050906;28;20575;-58
2024/01/20 09:20:45;;;;;;;2.38;2.28;;;;;;;4.97;100.00;98432.25;5050968;28;20182;-58
2024/01/20 09:23:11;;;;;;;2.67;2.47;;;;;;;5.46;100.00;98521.41;5050733;28;20214;-58
2024/01/20 09:25:36;;;;;;;6.93;5.07;;;;;;;5.41;100.00;98517.38;5048060;28;20189;-58
2024/01/20 09:28:03;;;;;;;3.88;3.35;;;;;;;5.34;100.00;98514.28;5050786;28;20645;-58
2024/01/20 09:30:29;;;;;;;2.70;2.50;;;;;;;5.40;100.00;98524.25;5050691;28;20277;-58
2024/01/20 09:32:54;;;;;;;3.42;2.45;;;;;;;5.21;100.00;98477.28;5050478;28;20201;-58
2024/01/20 09:35:20;;;;;;;4.28;3.60;;;;;;;4.99;100.00;98445.81;5050992;28;20200;-57
2024/01/20 09:37:45;;;;;;;5.35;4.35;;;;;;;5.57;100.00;98531.16;5050645;28;20323;-58
2024/01/20 09:40:11;;;;;;;3.33;3.03;;;;;;;5.02;100.00;98447.41;5050426;28;20717;-58
2024/01/20 09:42:37;;;;;;;2.55;2.35;;;;;;;5.24;100.00;98497.63;5050228;28;20280;-57
2024/01/20 09:45:02;;;;;;;5.00;3.42;;;;;;;5.43;100.00;98531.81;5066709;28;20189;-58
2024/01/20 09:47:28;;;;;;;3.53;3.22;;;;;;;5.47;100.00;98533.34;5072805;28;20177;-58
2024/01/20 09:49:53;;;;;;;5.10;4.60;;;;;;;5.30;100.00;98494.78;5072511;28;20181;-59
2024/01/20 09:52:26;;;;;;;7.93;5.40;;;;;;;5.67;100.00;98542.69;5072748;28;20555;-58
2024/01/20 09:55:17;;;;;;;5.47;4.78;;;;;;;5.53;100.00;98517.66;5072664;28;20195;-59
2024/01/20 09:57:45;;;;;;;6.57;5.22;;;;;;;5.26;100.00;98493.25;5072730;28;20169;-59
2024/01/20 10:00:16;;;;;;;4.82;4.40;;;;;;;5.40;100.00;98519.13;5072878;28;20181;-58
2024/01/20 10:02:47;;;;;;;4.93;4.47;;;;;;;5.31;100.00;98518.72;5030024;28;20311;-58
2024/01/20 10:05:14;;;;;;;5.25;4.65;;;;;;;4.98;100.00;98477.50;5010119;28;20284;-58
2024/01/20 10:07:40;;;;;;;7.57;5.47;;;;;;;5.54;100.00;98578.34;5015120;28;20187;-59
2024/01/20 10:10:06;;;;;;;6.65;5.47;;;;;;;5.16;100.00;98519.41;5039292;28;20290;-59
2024/01/20 10:12:32;;;;;;;8.98;7.22;;;;;;;5.13;100.00;98540.06;5034527;28;20579;-59
2024/01/20 10:14:58;;;;;;;8.95;5.90;;;;;;;5.43;100.00;98574.59;5029059;28;20201;-57
2024/01/20 10:17:23;;;;;;;6.03;5.45;;;;;;;4.99;100.00;98509.91;5029639;28;20277;-58
2024/01/20 10:19:49;;;;;;;5.38;4.25;;;;;;;5.37;100.00;98565.44;4988754;28;20197;-58
2024/01/20 10:22:14;;;;;;;8.10;5.60;;;;;;;5.22;100.00;98545.63;4990636;28;20789;-58
2024/01/20 10:25:06;;;;;;;7.78;5.07;;;;;;;5.43;100.00;98595.94;4990640;28;20682;-58
2024/01/20 10:27:31;;;;;;;7.85;5.32;;;;;;;5.09;100.00;98554.78;4950863;28;20504;-58
2024/01/20 10:29:56;;;;;;;5.25;4.75;;;;;;;5.34;100.00;98601.50;4913462;29;20201;-58
2024/01/20 10:32:22;;;;;;;5.10;3.95;;;;;;;5.37;100.00;98609.06;4913583;29;20316;-58
2024/01/20 10:34:47;;;;;;;8.00;5.55;;;;;;;5.32;100.00;98605.03;4913665;29;20591;-58
2024/01/20 10:37:13;;;;;;;7.90;5.90;;;;;;;5.26;100.00;98613.00;4913672;29;20195;-58
2024/01/20 10:39:43;;;;;;;9.23;5.25;;;;;;;5.19;100.00;98604.72;4913589;29;20190;-58
2024/01/20 10:42:13;;;;;;;6.05;3.95;;;;;;;4.81;100.00;98540.66;4912705;29;20321;-58
2024/01/20 10:44:44;;;;;;;5.85;4.25;;;;;;;5.25;100.00;98630.13;4913308;29;20197;-58
2024/01/20 10:47:22;;;;;;;6.70;5.50;;;;;;;5.01;100.00;98595.28;4913340;29;20618;-58
2024/01/20 10:49:48;;;;;;;8.90;7.15;;;;;;;4.93;100.00;98587.09;4917934;28;20194;-58
2024/01/20 10:52:14;;;;;;;8.60;6.30;;;;;;;4.61;100.00;98536.38;4970462;28;20192;-58
2024/01/20 10:54:43;;;;;;;7.30;5.30;;;;;;;5.31;100.00;98642.66;4970490;28;20236;-58
2024/01/20 10:57:10;;;;;;;3.65;3.35;;;;;;;4.87;100.00;98596.78;4970489;28;20199;-58
2024/01/20 10:59:41;;;;;;;6.57;4.47;;;;;;;4.90;100.00;98617.16;5023318;28;20564;-58
2024/01/20 11:02:09;;;;;;;5.35;4.45;;;;;;;4.46;100.00;98557.53;5076479;28;20230;-58
2024/01/20 11:04:35;;;;;;;3.95;3.13;;;;;;;4.93;100.00;98658.88;5090350;28;20733;-58
2024/01/20 11:07:00;;;;;;;5.25;3.72;;;;;;;4.79;100.00;98661.16;5090427;28;20280;-58
2024/01/20 11:09:26;;;;;;;13.05;8.23;;;;;;;4.84;100.00;98658.44;5091659;28;20650;-59
2024/01/20 11:12:03;;;;;;;16.75;10.05;;;;;;;4.82;100.00;98657.66;5091446;28;20570;-59
2024/01/20 11:14:32;;;;;;;14.07;9.30;;;;;;;4.91;100.00;98655.53;5089790;28;20222;-59
2024/01/20 11:17:11;;;;;;;15.77;9.07;;;;;;;4.67;100.00;98610.44;5090862;28;20176;-59
2024/01/20 11:19:36;;;;;;;24.10;13.25;;;;;;;4.89;100.00;98633.44;5091589;28;20176;-58
2024/01/20 11:22:02;;;;;;;18.08;11.00;;;;;;;5.08;100.00;98665.91;5091601;28;20200;-57
2024/01/20 11:24:42;;;;;;;15.55;9.77;;;;;;;4.50;100.00;98584.69;5091695;28;20169;-57
2024/01/20 11:27:08;;;;;;;11.60;8.55;;;;;;;5.10;100.00;98674.41;5094052;28;20274;-58